Time;durP1;ratioP1;P1;durP2;ratioP2;P2;SDS_P1;SDS_P2;PMS_P1;PMS_P2;Temp;Humidity;BMP_temperature;BMP_pressure;BME280_temperature;BME280_humidity;BME280_pressure;Samples;Min_cycle;Max_cycle;Signal;HPM_P1;HPM_P2
2023/06/26 00:01:52;;;;;;;9.43;7.87;;;;;;;19.96;59.37;98059.53;5071140;28;20230;-81
2023/06/26 00:04:19;;;;;;;8.47;7.57;;;;;;;19.91;60.08;98067.25;5070693;28;20203;-81
2023/06/26 00:06:45;;;;;;;9.27;8.03;;;;;;;19.85;60.40;98061.69;5070738;28;20223;-81
2023/06/26 00:09:12;;;;;;;9.20;7.50;;;;;;;19.80;60.93;98064.88;5070499;28;20692;-81
2023/06/26 00:11:39;;;;;;;8.60;7.33;;;;;;;19.70;61.70;98058.81;5073266;28;20237;-83
2023/06/26 00:14:07;;;;;;;8.83;7.90;;;;;;;19.68;61.78;98065.34;5074791;28;20528;-82
2023/06/26 00:16:33;;;;;;;8.60;7.67;;;;;;;19.62;62.13;98066.84;5074565;28;20231;-81
2023/06/26 00:19:00;;;;;;;9.17;7.93;;;;;;;19.62;62.29;98061.47;5074552;28;20211;-82
2023/06/26 00:21:27;;;;;;;9.63;8.03;;;;;;;19.56;63.01;98062.13;5074907;28;20214;-81
2023/06/26 00:23:53;;;;;;;9.50;7.90;;;;;;;19.45;63.59;98062.41;5074705;28;20229;-82
2023/06/26 00:26:20;;;;;;;8.90;7.90;;;;;;;19.36;64.13;98066.09;5074609;28;20223;-81
2023/06/26 00:28:46;;;;;;;9.00;7.80;;;;;;;19.30;64.51;98061.38;5074431;28;20226;-81
2023/06/26 00:31:14;;;;;;;9.00;7.90;;;;;;;19.26;64.69;98065.38;5074193;28;20208;-81
2023/06/26 00:33:40;;;;;;;9.00;7.73;;;;;;;19.23;64.92;98060.34;5074508;28;20234;-81
2023/06/26 00:36:07;;;;;;;10.03;7.83;;;;;;;19.21;65.57;98062.31;5074403;28;20239;-81
2023/06/26 00:38:33;;;;;;;9.30;7.87;;;;;;;19.15;65.75;98057.56;5074464;28;20584;-81
2023/06/26 00:41:00;;;;;;;9.37;8.17;;;;;;;19.09;66.54;98063.59;5074043;28;20406;-81
2023/06/26 00:43:26;;;;;;;8.73;7.53;;;;;;;19.03;66.83;98064.22;5074398;28;20208;-82
2023/06/26 00:45:53;;;;;;;10.00;8.57;;;;;;;19.01;66.85;98052.00;5074084;28;20223;-81
2023/06/26 00:48:21;;;;;;;9.47;8.43;;;;;;;18.96;67.09;98057.81;5074412;28;20218;-81
2023/06/26 00:50:48;;;;;;;9.50;7.80;;;;;;;18.94;67.34;98049.13;5074084;28;20214;-81
2023/06/26 00:53:14;;;;;;;9.73;7.83;;;;;;;18.90;67.19;98045.06;5074158;28;20226;-81
2023/06/26 00:55:41;;;;;;;8.70;7.57;;;;;;;18.87;67.53;98049.91;5073817;28;20246;-81
2023/06/26 00:58:08;;;;;;;9.20;8.30;;;;;;;18.79;68.25;98049.88;5074036;28;20904;-81
2023/06/26 01:00:35;;;;;;;10.53;8.27;;;;;;;18.73;68.69;98051.38;5073379;28;20207;-83
2023/06/26 01:03:01;;;;;;;8.40;7.50;;;;;;;18.62;69.32;98048.94;5074079;28;20204;-81
2023/06/26 01:05:30;;;;;;;9.90;7.80;;;;;;;18.54;70.24;98054.22;5073940;28;20220;-81
2023/06/26 01:07:58;;;;;;;9.67;7.53;;;;;;;18.45;70.57;98055.19;5073917;28;20310;-81
2023/06/26 01:10:27;;;;;;;8.90;7.90;;;;;;;18.34;71.33;98052.75;5073376;28;20216;-83
2023/06/26 01:12:54;;;;;;;8.17;7.30;;;;;;;18.18;72.53;98054.44;5073559;28;20301;-81
2023/06/26 01:15:20;;;;;;;9.30;8.03;;;;;;;18.11;72.39;98056.06;5073669;28;20227;-81
2023/06/26 01:17:47;;;;;;;11.07;7.43;;;;;;;18.02;72.67;98047.13;5074068;28;20215;-81
2023/06/26 01:20:15;;;;;;;8.20;7.30;;;;;;;17.94;72.97;98047.06;5073230;28;20641;-81
2023/06/26 01:22:57;;;;;;;8.57;7.40;;;;;;;17.91;73.43;98057.22;5073026;28;20207;-81
2023/06/26 01:25:38;;;;;;;8.63;7.37;;;;;;;17.85;73.86;98045.28;5073302;28;20227;-81
2023/06/26 01:28:07;;;;;;;9.03;7.63;;;;;;;17.87;73.50;98048.63;5073308;28;20226;-81
2023/06/26 01:30:35;;;;;;;9.90;7.67;;;;;;;17.90;73.62;98045.66;5073111;28;20294;-81
2023/06/26 01:33:03;;;;;;;9.23;7.80;;;;;;;17.87;74.05;98039.78;5073443;28;20238;-81
2023/06/26 01:35:30;;;;;;;9.97;7.87;;;;;;;17.87;74.00;98035.28;5073372;28;20244;-81
2023/06/26 01:38:16;;;;;;;9.13;7.60;;;;;;;17.86;74.11;98038.94;5073295;28;20214;-81
2023/06/26 01:40:43;;;;;;;11.00;8.23;;;;;;;17.92;74.12;98042.84;5072818;28;20218;-81
2023/06/26 01:43:19;;;;;;;9.83;7.93;;;;;;;17.90;74.34;98034.13;5073277;28;20219;-81
2023/06/26 01:45:49;;;;;;;8.93;7.57;;;;;;;17.88;74.51;98028.09;5073135;28;20218;-81
2023/06/26 01:48:20;;;;;;;8.33;7.47;;;;;;;17.90;74.88;98028.78;5073109;28;20216;-81
2023/06/26 01:50:47;;;;;;;8.33;7.37;;;;;;;17.91;74.73;98031.31;5072623;28;20541;-81
2023/06/26 01:53:19;;;;;;;9.83;8.07;;;;;;;17.98;74.40;98021.66;5073144;28;20203;-81
2023/06/26 01:55:48;;;;;;;8.97;7.60;;;;;;;18.00;74.47;98025.03;5072583;28;20267;-81
2023/06/26 01:58:17;;;;;;;8.57;7.60;;;;;;;17.97;74.94;98025.34;5073084;28;20227;-81
2023/06/26 02:00:44;;;;;;;11.07;7.87;;;;;;;17.98;74.82;98027.00;5072714;28;20653;-81
2023/06/26 02:03:10;;;;;;;8.20;7.40;;;;;;;17.95;74.80;98021.13;5072959;28;20215;-81
2023/06/26 02:05:37;;;;;;;8.43;7.50;;;;;;;17.93;74.44;98018.59;5072564;28;20242;-81
2023/06/26 02:08:04;;;;;;;9.27;7.83;;;;;;;17.90;74.51;98018.94;5072665;28;20665;-82
2023/06/26 02:10:30;;;;;;;9.67;7.83;;;;;;;17.87;74.96;98023.75;5072429;28;20680;-81
2023/06/26 02:12:57;;;;;;;9.17;8.00;;;;;;;17.86;75.04;98028.25;5072646;28;20203;-81
2023/06/26 02:15:25;;;;;;;9.40;7.90;;;;;;;17.93;74.34;98023.97;5072170;28;20318;-81
2023/06/26 02:17:51;;;;;;;9.10;8.03;;;;;;;17.91;74.48;98020.59;5072710;28;20203;-83
2023/06/26 02:20:18;;;;;;;9.03;8.07;;;;;;;17.88;74.78;98020.94;5072400;28;20214;-81
2023/06/26 02:22:44;;;;;;;9.80;8.33;;;;;;;17.86;75.08;98022.91;5072409;28;20215;-85
2023/06/26 02:25:12;;;;;;;9.73;7.63;;;;;;;17.87;75.17;98024.56;5072496;28;20231;-84
2023/06/26 02:27:38;;;;;;;9.43;8.10;;;;;;;17.87;75.27;98029.91;5072398;28;20280;-84
2023/06/26 02:30:06;;;;;;;10.00;7.90;;;;;;;17.87;75.04;98029.91;5071855;28;20204;-84
2023/06/26 02:32:34;;;;;;;9.83;8.00;;;;;;;17.83;75.50;98022.38;5072092;28;20203;-84
2023/06/26 02:35:00;;;;;;;9.23;7.60;;;;;;;17.79;75.92;98027.19;5071566;28;20231;-84
2023/06/26 02:37:27;;;;;;;10.47;8.20;;;;;;;17.73;76.37;98022.44;5072160;28;20228;-84
2023/06/26 02:39:53;;;;;;;8.93;7.37;;;;;;;17.70;76.41;98027.25;5072302;28;20203;-84
2023/06/26 02:42:20;;;;;;;9.73;8.10;;;;;;;17.63;76.75;98028.88;5071903;28;20204;-84
2023/06/26 02:44:46;;;;;;;9.93;8.50;;;;;;;17.55;77.05;98021.59;5071732;28;20214;-84
2023/06/26 02:47:13;;;;;;;9.77;7.63;;;;;;;17.51;77.43;98022.91;5071873;28;20204;-84
2023/06/26 02:49:41;;;;;;;10.00;7.30;;;;;;;17.43;77.97;98035.34;5071665;28;20204;-84
2023/06/26 02:52:07;;;;;;;9.37;8.20;;;;;;;17.40;78.22;98036.47;5071718;28;20641;-84
2023/06/26 02:54:34;;;;;;;10.57;8.60;;;;;;;17.39;78.30;98029.47;5071609;28;20234;-84
2023/06/26 02:57:00;;;;;;;9.60;8.13;;;;;;;17.36;78.28;98029.72;5085667;22;20247;-88
2023/06/26 02:59:27;;;;;;;9.60;7.83;;;;;;;17.29;78.88;98033.97;5070873;28;20211;-87
2023/06/26 03:01:53;;;;;;;9.80;8.27;;;;;;;17.24;79.47;98038.09;5071633;28;20211;-87
2023/06/26 03:04:21;;;;;;;9.10;7.83;;;;;;;17.28;79.18;98031.47;5071651;28;20211;-88
2023/06/26 03:06:49;;;;;;;11.20;8.60;;;;;;;17.27;80.00;98029.78;5071575;28;20314;-87
2023/06/26 03:09:16;;;;;;;11.53;8.57;;;;;;;17.21;80.57;98033.91;5071236;28;20234;-88
2023/06/26 03:11:43;;;;;;;11.40;8.67;;;;;;;17.20;80.79;98034.03;5071356;28;20207;-87
2023/06/26 03:14:09;;;;;;;11.00;8.90;;;;;;;17.19;81.25;98038.53;5071244;28;20214;-87
2023/06/26 03:16:36;;;;;;;11.60;8.93;;;;;;;17.17;81.64;98040.53;5071525;28;20564;-87
2023/06/26 03:19:02;;;;;;;9.90;8.80;;;;;;;17.18;82.03;98026.16;5071613;28;20236;-87
2023/06/26 03:21:30;;;;;;;10.53;8.23;;;;;;;17.22;81.95;98037.41;5071227;28;20207;-87
2023/06/26 03:23:57;;;;;;;10.90;8.40;;;;;;;17.19;82.48;98029.69;5071504;28;20628;-87
2023/06/26 03:26:28;;;;;;;9.83;8.57;;;;;;;17.18;82.73;98026.16;5071367;28;20223;-87
2023/06/26 03:28:54;;;;;;;9.37;8.37;;;;;;;17.17;83.29;98029.84;5072264;28;20247;-87
2023/06/26 03:31:21;;;;;;;9.40;8.17;;;;;;;17.17;83.26;98034.31;5071449;28;20211;-87
2023/06/26 03:33:47;;;;;;;10.07;8.33;;;;;;;17.18;83.72;98034.19;5071792;28;20644;-87
2023/06/26 03:36:14;;;;;;;10.47;8.60;;;;;;;17.20;83.68;98031.38;5071713;28;20238;-87
2023/06/26 03:38:41;;;;;;;10.23;8.90;;;;;;;17.22;83.89;98032.91;5071584;28;20212;-87
2023/06/26 03:41:09;;;;;;;10.20;8.83;;;;;;;17.20;84.41;98029.53;5070968;28;20237;-87
2023/06/26 03:43:35;;;;;;;10.10;8.13;;;;;;;17.23;84.34;98034.59;5071241;28;20317;-87
2023/06/26 03:46:02;;;;;;;11.73;9.07;;;;;;;17.23;84.27;98034.59;5071108;28;20223;-87
2023/06/26 03:48:28;;;;;;;10.30;8.50;;;;;;;17.27;84.53;98041.31;5071292;28;20226;-87
2023/06/26 03:50:55;;;;;;;9.30;8.33;;;;;;;17.28;84.38;98037.66;5071246;28;20211;-87
2023/06/26 03:53:21;;;;;;;12.90;9.40;;;;;;;17.34;83.69;98037.06;5071689;28;20210;-87
2023/06/26 03:55:48;;;;;;;10.43;8.70;;;;;;;17.36;84.12;98045.75;5071572;28;20235;-87
2023/06/26 03:58:16;;;;;;;9.93;8.63;;;;;;;17.40;83.98;98047.16;5079280;28;20231;-87
2023/06/26 04:00:42;;;;;;;10.03;8.57;;;;;;;17.41;83.59;98043.50;5072382;28;20207;-87
2023/06/26 04:03:09;;;;;;;10.90;8.67;;;;;;;17.43;83.46;98038.84;5071491;28;20597;-87
2023/06/26 04:05:35;;;;;;;10.03;8.47;;;;;;;17.45;83.07;98038.69;5071481;28;20227;-87
2023/06/26 04:08:02;;;;;;;11.20;8.47;;;;;;;17.46;82.74;98038.56;5071397;28;20695;-87
2023/06/26 04:10:28;;;;;;;11.67;9.07;;;;;;;17.48;82.29;98043.72;5071095;28;20302;-87
2023/06/26 04:12:55;;;;;;;9.97;8.57;;;;;;;17.52;82.30;98042.44;5078741;28;20214;-88
2023/06/26 04:15:23;;;;;;;9.80;8.37;;;;;;;17.57;81.17;98038.34;5088930;28;20290;-87
2023/06/26 04:17:49;;;;;;;10.03;8.80;;;;;;;17.59;81.05;98040.84;5072148;28;20238;-88
2023/06/26 04:20:16;;;;;;;9.10;7.93;;;;;;;17.62;80.79;98036.03;5071983;28;20239;-87
2023/06/26 04:22:42;;;;;;;10.43;8.20;;;;;;;17.61;79.80;98039.69;5071805;28;20212;-87
2023/06/26 04:25:11;;;;;;;10.00;8.23;;;;;;;17.60;79.86;98042.50;5072251;28;20218;-87
2023/06/26 04:27:38;;;;;;;8.43;7.50;;;;;;;17.57;80.31;98046.38;5071544;28;20650;-87
2023/06/26 04:30:05;;;;;;;8.63;7.50;;;;;;;17.60;81.16;98047.88;5071573;28;20298;-87
2023/06/26 04:32:33;;;;;;;8.90;7.33;;;;;;;17.63;80.92;98045.72;5071667;28;20220;-87
2023/06/26 04:34:59;;;;;;;8.53;7.43;;;;;;;17.66;79.97;98036.56;5071774;28;20262;-85
2023/06/26 04:37:26;;;;;;;9.07;8.07;;;;;;;17.71;78.74;98034.28;5071403;28;20238;-87
2023/06/26 04:39:53;;;;;;;9.20;7.83;;;;;;;17.81;76.52;98035.88;5071665;28;20204;-87
2023/06/26 04:42:21;;;;;;;8.73;7.73;;;;;;;17.85;74.18;98026.56;5071772;28;20212;-87
2023/06/26 04:44:48;;;;;;;9.73;8.00;;;;;;;17.90;73.98;98018.94;5094558;28;20222;-89
2023/06/26 04:47:14;;;;;;;9.20;7.87;;;;;;;17.89;74.30;98025.28;5096095;28;20214;-87
2023/06/26 04:49:45;;;;;;;8.67;7.60;;;;;;;17.92;75.25;98032.16;5095853;28;20207;-87
2023/06/26 04:52:13;;;;;;;9.27;7.53;;;;;;;17.95;76.67;98037.19;5096219;28;20176;-88
2023/06/26 04:54:39;;;;;;;9.10;7.60;;;;;;;18.01;77.79;98037.41;5095215;28;20226;-87
2023/06/26 04:57:06;;;;;;;8.77;7.87;;;;;;;18.13;78.63;98036.19;5091662;28;20234;-88
2023/06/26 04:59:33;;;;;;;11.07;8.53;;;;;;;18.29;79.95;98041.63;5099374;28;20192;-87
2023/06/26 05:01:59;;;;;;;10.10;8.30;;;;;;;18.60;80.41;98040.22;5099179;28;20361;-87
2023/06/26 05:04:26;;;;;;;11.03;8.00;;;;;;;19.01;80.02;98034.09;5099533;28;20192;-88
2023/06/26 05:06:53;;;;;;;8.60;7.70;;;;;;;19.63;79.38;98036.34;5099264;28;20231;-88
2023/06/26 05:09:20;;;;;;;10.43;8.60;;;;;;;20.34;77.19;98032.06;5099283;28;20191;-87
2023/06/26 05:11:46;;;;;;;9.07;8.03;;;;;;;21.05;74.46;98027.59;5098926;28;20197;-87
2023/06/26 05:14:13;;;;;;;9.50;8.43;;;;;;;21.78;70.01;98010.09;5099143;28;20195;-87
2023/06/26 05:16:39;;;;;;;10.00;7.50;;;;;;;22.45;66.19;97997.59;5099231;28;20260;-88
2023/06/26 05:19:06;;;;;;;10.03;8.03;;;;;;;23.00;62.89;97993.47;5099385;28;20191;-88
2023/06/26 05:21:34;;;;;;;8.77;7.87;;;;;;;23.53;60.40;97995.81;5099146;28;20259;-88
2023/06/26 05:24:04;;;;;;;10.20;8.10;;;;;;;23.99;58.08;97990.94;5092501;28;20191;-87
2023/06/26 05:26:31;;;;;;;9.53;7.30;;;;;;;24.43;56.52;97992.38;5095870;28;20218;-88
2023/06/26 05:28:58;;;;;;;9.00;8.00;;;;;;;24.82;54.84;97989.97;5099203;28;20190;-88
2023/06/26 05:31:25;;;;;;;9.80;8.37;;;;;;;25.12;53.63;97987.88;5098631;28;20215;-87
2023/06/26 05:33:56;;;;;;;10.17;8.47;;;;;;;25.37;52.94;97984.47;5098517;28;20210;-88
2023/06/26 05:36:24;;;;;;;11.57;7.03;;;;;;;25.64;52.31;97980.84;5097544;28;20212;-87
2023/06/26 05:38:51;;;;;;;8.57;7.67;;;;;;;25.84;50.62;97976.28;5095079;28;20298;-80
2023/06/26 05:41:20;;;;;;;8.73;7.82;;;;;;;26.09;49.96;97974.69;5079840;28;20549;-80
2023/06/26 05:43:47;;;;;;;9.75;7.88;;;;;;;26.29;49.04;97978.28;5073236;28;20227;-80
2023/06/26 05:46:13;;;;;;;9.10;7.80;;;;;;;26.61;48.93;97979.31;5073386;28;20260;-81
2023/06/26 05:48:40;;;;;;;8.25;7.40;;;;;;;26.88;48.07;97970.94;5073204;28;20206;-85
2023/06/26 05:51:08;;;;;;;9.48;8.25;;;;;;;27.09;46.88;97968.78;5072967;28;20207;-75
2023/06/26 05:53:35;;;;;;;9.90;7.70;;;;;;;27.28;46.67;97967.91;5072913;28;20211;-76
2023/06/26 05:56:02;;;;;;;9.13;8.20;;;;;;;27.44;46.34;97963.88;5072855;28;20242;-81
2023/06/26 05:58:31;;;;;;;8.85;7.18;;;;;;;27.61;46.37;97968.59;5072564;28;20293;-82
2023/06/26 06:00:57;;;;;;;9.77;7.32;;;;;;;27.81;45.93;97974.78;5072646;28;20208;-81
2023/06/26 06:03:24;;;;;;;8.65;7.75;;;;;;;28.00;45.18;97973.00;5072854;28;20207;-81
2023/06/26 06:05:50;;;;;;;7.72;6.88;;;;;;;28.21;44.78;97969.94;5072786;28;20251;-79
2023/06/26 06:08:17;;;;;;;8.05;6.75;;;;;;;28.45;44.00;97960.97;5072588;28;20211;-79
2023/06/26 06:10:43;;;;;;;8.50;7.20;;;;;;;28.59;44.00;97959.78;5072124;28;20203;-79
2023/06/26 06:13:10;;;;;;;9.90;7.43;;;;;;;28.69;43.71;97962.84;5072277;28;20222;-79
2023/06/26 06:15:38;;;;;;;9.90;7.20;;;;;;;28.73;43.57;97956.72;5083976;28;20566;-79
2023/06/26 06:18:04;;;;;;;8.15;7.35;;;;;;;28.87;43.56;97958.25;5086679;28;20227;-79
2023/06/26 06:20:31;;;;;;;8.13;7.28;;;;;;;28.98;42.99;97956.72;5086341;28;20670;-77
2023/06/26 06:22:57;;;;;;;8.27;7.30;;;;;;;29.13;42.40;97959.91;5081765;28;20211;-79
2023/06/26 06:25:24;;;;;;;8.60;7.65;;;;;;;29.27;42.25;97955.94;5072735;28;20223;-78
2023/06/26 06:27:50;;;;;;;9.43;7.60;;;;;;;29.33;42.09;97966.78;5072473;28;20223;-77
2023/06/26 06:30:17;;;;;;;7.63;6.93;;;;;;;29.46;41.44;97963.06;5070664;28;20248;-78
2023/06/26 06:32:45;;;;;;;7.88;7.07;;;;;;;29.46;41.36;97972.06;5070775;28;20211;-79
2023/06/26 06:35:12;;;;;;;7.65;6.93;;;;;;;29.61;41.06;97969.81;5071169;28;20203;-81
2023/06/26 06:37:39;;;;;;;8.57;7.50;;;;;;;29.63;40.42;97972.28;5071236;28;20717;-81
2023/06/26 06:40:08;;;;;;;7.80;6.97;;;;;;;29.79;40.86;97968.94;5070560;28;20207;-82
2023/06/26 06:42:35;;;;;;;8.18;7.35;;;;;;;29.83;40.55;97972.88;5071629;28;20195;-81
2023/06/26 06:45:03;;;;;;;7.47;6.78;;;;;;;29.98;40.50;97981.44;5071440;28;20207;-84
2023/06/26 06:47:29;;;;;;;10.45;7.07;;;;;;;30.21;40.25;97981.53;5071518;28;20642;-80
2023/06/26 06:49:57;;;;;;;7.78;7.07;;;;;;;30.13;39.72;97977.25;5070703;28;20219;-79
2023/06/26 06:52:24;;;;;;;8.40;7.25;;;;;;;30.14;39.78;97980.81;5071044;28;20211;-79
2023/06/26 06:54:54;;;;;;;7.68;6.78;;;;;;;30.04;39.50;97972.34;5070834;28;20214;-79
2023/06/26 06:57:21;;;;;;;7.63;6.65;;;;;;;30.21;40.12;97992.47;5070387;28;20549;-78
2023/06/26 06:59:48;;;;;;;6.93;6.22;;;;;;;30.33;40.12;97980.50;5070593;28;20207;-78
2023/06/26 07:02:15;;;;;;;8.23;7.05;;;;;;;30.47;39.31;97975.66;5070858;28;20203;-78
2023/06/26 07:04:41;;;;;;;8.52;6.55;;;;;;;30.54;38.58;97965.47;5070642;28;20215;-78
2023/06/26 07:07:09;;;;;;;7.93;7.13;;;;;;;30.43;38.55;97964.41;5071482;28;20235;-78
2023/06/26 07:09:36;;;;;;;9.02;6.88;;;;;;;30.06;38.89;97972.91;5071453;28;20674;-81
2023/06/26 07:12:03;;;;;;;7.90;6.65;;;;;;;29.89;40.12;97971.94;5071723;28;20216;-78
2023/06/26 07:14:30;;;;;;;8.37;7.30;;;;;;;29.47;40.08;97967.44;5071146;28;20443;-80
2023/06/26 07:16:56;;;;;;;7.55;6.82;;;;;;;28.97;41.14;97974.94;5071008;28;20559;-77
2023/06/26 07:19:22;;;;;;;8.00;6.80;;;;;;;28.41;41.94;97976.91;5069324;28;20921;-78
2023/06/26 07:21:49;;;;;;;7.25;6.55;;;;;;;27.92;43.51;97986.84;5069753;28;20207;-78
2023/06/26 07:24:17;;;;;;;7.53;6.80;;;;;;;27.59;45.10;98005.19;5070574;28;20214;-78
2023/06/26 07:26:43;;;;;;;7.68;6.88;;;;;;;27.37;44.38;97990.22;5070841;28;20589;-77
2023/06/26 07:29:10;;;;;;;7.07;6.30;;;;;;;27.09;45.72;97995.09;5070697;28;20203;-81
2023/06/26 07:31:36;;;;;;;7.63;6.80;;;;;;;27.04;46.10;97997.63;5071117;28;20204;-81
2023/06/26 07:34:03;;;;;;;7.75;6.95;;;;;;;27.06;46.37;98000.94;5070955;28;20219;-81
2023/06/26 07:36:29;;;;;;;7.68;6.88;;;;;;;27.11;46.03;97998.41;5071823;28;20235;-78
2023/06/26 07:38:56;;;;;;;9.02;7.10;;;;;;;27.12;45.51;97997.38;5071068;28;20423;-87
2023/06/26 07:41:23;;;;;;;7.55;6.85;;;;;;;27.03;45.71;98002.19;5072624;28;20207;-90
2023/06/26 07:43:50;;;;;;;7.20;6.50;;;;;;;27.01;45.98;98011.59;5072956;28;20207;-90
2023/06/26 07:46:16;;;;;;;9.27;7.07;;;;;;;27.07;47.08;98018.88;5072728;28;20236;-90
2023/06/26 07:48:43;;;;;;;7.30;6.25;;;;;;;27.23;46.19;98004.03;5071760;28;20212;-90
2023/06/26 07:51:09;;;;;;;8.48;6.82;;;;;;;27.42;45.81;98006.69;5071530;28;20218;-89
2023/06/26 07:53:36;;;;;;;8.18;6.97;;;;;;;27.53;45.81;98008.75;5071853;28;20203;-83
2023/06/26 07:56:02;;;;;;;7.45;6.28;;;;;;;27.68;44.47;97993.00;5070999;28;20250;-82
2023/06/26 07:58:30;;;;;;;7.60;6.53;;;;;;;27.69;43.80;97986.53;5071082;28;20231;-82
2023/06/26 08:00:57;;;;;;;8.32;6.90;;;;;;;27.69;44.43;97998.22;5070612;28;20297;-80
2023/06/26 08:03:23;;;;;;;8.38;6.85;;;;;;;27.69;44.63;98002.84;5071337;28;20211;-78
2023/06/26 08:05:50;;;;;;;7.22;6.55;;;;;;;27.65;44.19;97993.44;5070732;28;20231;-85
2023/06/26 08:08:16;;;;;;;8.50;6.70;;;;;;;27.66;44.42;97992.41;5070978;28;20214;-88
2023/06/26 08:10:43;;;;;;;10.85;7.43;;;;;;;27.65;43.96;97983.41;5070611;28;20211;-78
2023/06/26 08:13:09;;;;;;;7.45;6.75;;;;;;;27.81;43.25;97980.22;5070771;28;20211;-80
2023/06/26 08:15:37;;;;;;;6.97;6.38;;;;;;;27.86;43.77;97985.00;5070961;28;20229;-82
2023/06/26 08:18:04;;;;;;;7.10;6.28;;;;;;;27.96;43.59;97988.06;5070578;28;20238;-82
2023/06/26 08:20:30;;;;;;;8.45;6.75;;;;;;;27.88;43.80;97986.44;5070391;28;20681;-82
2023/06/26 08:22:57;;;;;;;7.13;6.43;;;;;;;28.03;44.08;97989.72;5070747;28;20210;-82
2023/06/26 08:25:23;;;;;;;6.85;6.10;;;;;;;28.29;41.86;97977.78;5070875;28;20228;-82
2023/06/26 08:27:52;;;;;;;6.70;5.88;;;;;;;28.49;41.22;97973.09;5070782;28;20215;-81
2023/06/26 08:30:18;;;;;;;6.65;5.88;;;;;;;28.62;41.57;97968.34;5070487;28;20214;-82
2023/06/26 08:32:46;;;;;;;7.72;5.90;;;;;;;28.65;40.76;97967.06;5073094;28;20234;-86
2023/06/26 08:35:13;;;;;;;7.03;5.57;;;;;;;28.65;41.64;97976.06;5074140;28;20215;-88
2023/06/26 08:37:39;;;;;;;6.68;5.88;;;;;;;28.75;41.75;97972.84;5074647;28;20579;-87
2023/06/26 08:40:08;;;;;;;6.97;5.88;;;;;;;28.88;41.71;97978.13;5074126;28;20207;-83
2023/06/26 08:42:35;;;;;;;7.22;5.57;;;;;;;29.14;40.12;97962.41;5074473;28;20245;-82
2023/06/26 08:45:02;;;;;;;6.85;6.05;;;;;;;29.14;40.33;97956.09;5073841;28;20210;-82
2023/06/26 08:47:30;;;;;;;8.07;5.75;;;;;;;29.16;40.47;97956.72;5074305;28;20311;-83
2023/06/26 08:50:04;;;;;;;7.65;5.78;;;;;;;29.24;40.16;97959.13;5073681;28;20210;-82
2023/06/26 08:52:34;;;;;;;5.32;4.82;;;;;;;29.28;39.83;97950.28;5083223;28;20206;-80
2023/06/26 08:55:03;;;;;;;5.43;4.95;;;;;;;29.33;40.14;97955.03;5075923;28;20242;-81
2023/06/26 08:57:32;;;;;;;5.93;5.30;;;;;;;29.37;39.76;97946.22;5073883;28;20207;-85
2023/06/26 08:59:59;;;;;;;6.85;5.50;;;;;;;29.42;39.66;97956.41;5073896;28;20578;-82
2023/06/26 09:02:26;;;;;;;6.55;5.95;;;;;;;29.46;39.39;97950.25;5074164;28;20218;-82
2023/06/26 09:04:53;;;;;;;5.47;4.97;;;;;;;29.49;39.79;97959.88;5073776;28;20219;-83
2023/06/26 09:07:20;;;;;;;9.13;5.53;;;;;;;29.60;39.70;97950.97;5074037;28;20223;-82
2023/06/26 09:09:47;;;;;;;10.57;5.80;;;;;;;29.63;39.83;97961.38;5073776;28;20199;-82
2023/06/26 09:12:14;;;;;;;7.13;5.20;;;;;;;29.66;39.67;97960.94;5073865;28;20302;-82
2023/06/26 09:14:41;;;;;;;8.85;5.75;;;;;;;29.68;39.06;97948.75;5073984;28;20226;-82
2023/06/26 09:17:07;;;;;;;8.43;5.45;;;;;;;29.83;39.17;97964.69;5073288;28;20718;-83
2023/06/26 09:19:37;;;;;;;6.28;5.35;;;;;;;29.83;39.35;97953.78;5073495;28;20243;-82
2023/06/26 09:22:04;;;;;;;7.70;5.60;;;;;;;29.97;39.43;97960.69;5073719;28;20211;-82
2023/06/26 09:24:32;;;;;;;6.10;5.50;;;;;;;30.08;39.39;97955.28;5073527;28;20204;-82
2023/06/26 09:26:59;;;;;;;6.95;5.60;;;;;;;30.24;39.46;97956.53;5073408;28;20237;-81
2023/06/26 09:29:28;;;;;;;9.73;5.80;;;;;;;30.44;39.13;97954.31;5073482;28;20199;-81
2023/06/26 09:31:57;;;;;;;6.13;5.20;;;;;;;30.48;38.70;97952.78;5073388;28;20207;-85
2023/06/26 09:34:30;;;;;;;7.00;5.32;;;;;;;30.49;37.93;97946.25;5073419;28;20215;-81
2023/06/26 09:36:57;;;;;;;6.70;5.10;;;;;;;30.55;37.32;97945.28;5073203;28;20784;-82
2023/06/26 09:39:23;;;;;;;6.60;4.68;;;;;;;30.54;37.39;97936.31;5072852;28;20238;-84
2023/06/26 09:41:51;;;;;;;5.85;5.22;;;;;;;30.61;37.52;97944.34;5073639;28;20207;-82
2023/06/26 09:44:19;;;;;;;5.30;4.85;;;;;;;30.64;37.62;97943.94;5073084;28;20223;-82
2023/06/26 09:46:46;;;;;;;6.85;4.97;;;;;;;30.75;37.16;97941.19;5072952;28;20231;-81
2023/06/26 09:49:13;;;;;;;5.70;5.10;;;;;;;30.84;36.96;97928.00;5072961;28;20298;-82
2023/06/26 09:51:41;;;;;;;5.57;5.07;;;;;;;30.86;36.88;97925.91;5072936;28;20823;-82
2023/06/26 09:54:09;;;;;;;5.60;5.10;;;;;;;30.81;37.31;97939.41;5073327;28;20562;-83
2023/06/26 09:56:36;;;;;;;6.65;5.20;;;;;;;30.63;37.26;97936.78;5073053;28;20281;-84
2023/06/26 09:59:05;;;;;;;6.35;5.30;;;;;;;30.61;37.88;97938.91;5072962;28;20227;-85
2023/06/26 10:01:32;;;;;;;6.13;5.50;;;;;;;30.48;37.63;97950.03;5072757;28;20298;-84
2023/06/26 10:03:59;;;;;;;5.78;5.18;;;;;;;30.25;38.61;97947.31;5073098;28;20222;-85
2023/06/26 10:06:32;;;;;;;6.47;5.57;;;;;;;30.25;38.91;97944.56;5072776;28;20234;-84
2023/06/26 10:09:00;;;;;;;6.28;5.50;;;;;;;30.19;39.09;97950.97;5072890;28;20204;-81
2023/06/26 10:11:33;;;;;;;6.05;5.30;;;;;;;30.28;39.16;97955.84;5072592;28;20208;-82
2023/06/26 10:14:01;;;;;;;6.50;5.63;;;;;;;30.18;38.80;97950.13;5072614;28;20214;-87
2023/06/26 10:16:32;;;;;;;6.40;5.90;;;;;;;29.91;39.20;97948.84;5072914;28;20231;-87
2023/06/26 10:19:03;;;;;;;7.15;5.80;;;;;;;29.83;39.67;97957.31;5072949;28;20235;-85
2023/06/26 10:21:31;;;;;;;6.90;6.20;;;;;;;29.88;39.94;97962.06;5072164;28;20541;-88
2023/06/26 10:23:59;;;;;;;7.07;5.75;;;;;;;29.94;40.91;97966.59;5071491;28;20203;-85
2023/06/26 10:26:28;;;;;;;7.05;6.35;;;;;;;29.86;40.21;97969.66;5071407;28;20237;-87
2023/06/26 10:28:57;;;;;;;10.70;6.38;;;;;;;29.77;40.98;97965.63;5071310;28;20218;-88
2023/06/26 10:31:27;;;;;;;6.82;6.13;;;;;;;29.82;40.71;97968.44;5070789;28;20215;-89
2023/06/26 10:33:56;;;;;;;9.55;6.30;;;;;;;29.79;40.90;97966.19;5071812;28;20203;-89
2023/06/26 10:36:31;;;;;;;6.93;6.05;;;;;;;29.75;41.03;97970.44;5071373;28;20238;-85
2023/06/26 10:39:02;;;;;;;7.18;6.40;;;;;;;29.81;40.64;97981.25;5072089;28;20223;-87
2023/06/26 10:41:37;;;;;;;10.75;6.22;;;;;;;29.86;40.50;97972.38;5072073;28;20689;-88
2023/06/26 10:44:09;;;;;;;8.23;6.22;;;;;;;29.92;40.49;97983.22;5071664;28;20206;-85
2023/06/26 10:46:49;;;;;;;8.43;6.63;;;;;;;29.90;39.95;97973.59;5071923;28;20273;-85
2023/06/26 10:49:18;;;;;;;9.20;6.05;;;;;;;29.95;40.55;97973.75;5071458;28;20210;-87
2023/06/26 10:51:48;;;;;;;7.97;6.13;;;;;;;30.03;40.60;97978.84;5072049;28;20230;-89
2023/06/26 10:54:16;;;;;;;7.80;5.60;;;;;;;30.23;40.71;97990.31;5070902;28;20593;-87
2023/06/26 10:56:43;;;;;;;7.18;6.47;;;;;;;30.47;39.77;97978.38;5071530;28;20740;-85
2023/06/26 10:59:18;;;;;;;7.93;5.97;;;;;;;30.58;39.48;97978.41;5071400;28;20227;-86
2023/06/26 11:01:45;;;;;;;7.07;6.32;;;;;;;30.78;39.26;97978.09;5071688;28;20210;-83
2023/06/26 11:04:14;;;;;;;7.28;6.57;;;;;;;30.65;39.57;97970.13;5071368;28;20666;-81
2023/06/26 11:06:45;;;;;;;10.32;6.55;;;;;;;30.63;40.00;97964.06;5071487;28;20227;-83
2023/06/26 11:09:14;;;;;;;6.88;6.18;;;;;;;30.47;40.57;97975.66;5071323;28;20215;-83
2023/06/26 11:12:04;;;;;;;6.65;6.00;;;;;;;30.30;40.76;97982.84;5071750;28;20207;-83
2023/06/26 11:14:31;;;;;;;7.25;6.55;;;;;;;30.07;41.12;97983.59;5071168;28;20434;-83
2023/06/26 11:16:58;;;;;;;10.15;6.20;;;;;;;30.07;41.81;97988.25;5071375;28;20223;-84
2023/06/26 11:19:27;;;;;;;7.35;6.68;;;;;;;30.34;41.65;97998.53;5068664;28;20227;-84
2023/06/26 11:22:00;;;;;;;8.15;6.32;;;;;;;30.57;40.66;97986.84;5070485;28;20713;-83
2023/06/26 11:24:27;;;;;;;7.88;6.72;;;;;;;30.69;41.58;97987.72;5070661;28;20203;-83
2023/06/26 11:26:53;;;;;;;6.95;5.93;;;;;;;30.85;41.25;97995.19;5070611;28;20230;-83
2023/06/26 11:29:20;;;;;;;8.35;6.15;;;;;;;30.96;41.30;97991.63;5070020;28;20210;-84
2023/06/26 11:31:46;;;;;;;8.63;6.28;;;;;;;30.89;40.80;97989.03;5070363;28;20560;-83
2023/06/26 11:34:15;;;;;;;7.35;5.78;;;;;;;30.96;41.83;98002.53;5070333;28;20211;-84